sensor_id;sensor_type;location;lat;lon;timestamp;temperature;humidity
13960;DHT22;7052;51.050;3.716;2022-12-29T00:00:17;11.10;99.90
13960;DHT22;7052;51.050;3.716;2022-12-29T00:02:44;11.20;99.90
13960;DHT22;7052;51.050;3.716;2022-12-29T00:05:11;11.20;99.90
13960;DHT22;7052;51.050;3.716;2022-12-29T00:07:39;11.20;99.90
13960;DHT22;7052;51.050;3.716;2022-12-29T00:10:07;11.30;99.90
13960;DHT22;7052;51.050;3.716;2022-12-29T00:12:34;11.30;99.90
13960;DHT22;7052;51.050;3.716;2022-12-29T00:15:19;11.40;99.90
13960;DHT22;7052;51.050;3.716;2022-12-29T00:18:04;11.40;99.90
13960;DHT22;7052;51.050;3.716;2022-12-29T00:20:33;11.50;99.90
13960;DHT22;7052;51.050;3.716;2022-12-29T00:23:20;11.50;99.90
13960;DHT22;7052;51.050;3.716;2022-12-29T00:26:08;11.50;99.90
13960;DHT22;7052;51.050;3.716;2022-12-29T00:28:59;11.50;99.90
13960;DHT22;7052;51.050;3.716;2022-12-29T00:31:45;11.60;99.90
13960;DHT22;7052;51.050;3.716;2022-12-29T00:34:31;11.60;99.90
13960;DHT22;7052;51.050;3.716;2022-12-29T00:37:15;11.60;99.90
13960;DHT22;7052;51.050;3.716;2022-12-29T00:40:08;11.60;99.90
13960;DHT22;7052;51.050;3.716;2022-12-29T00:42:52;11.60;99.90
13960;DHT22;7052;51.050;3.716;2022-12-29T00:45:36;11.60;99.90
13960;DHT22;7052;51.050;3.716;2022-12-29T00:48:05;11.60;99.90
13960;DHT22;7052;51.050;3.716;2022-12-29T00:50:33;11.60;99.90
13960;DHT22;7052;51.050;3.716;2022-12-29T00:53:00;11.50;99.90
13960;DHT22;7052;51.050;3.716;2022-12-29T00:55:28;11.60;99.90
13960;DHT22;7052;51.050;3.716;2022-12-29T00:57:56;11.60;99.90
13960;DHT22;7052;51.050;3.716;2022-12-29T01:00:23;11.60;99.90
13960;DHT22;7052;51.050;3.716;2022-12-29T01:02:50;11.60;99.90
13960;DHT22;7052;51.050;3.716;2022-12-29T01:05:17;11.60;99.90
13960;DHT22;7052;51.050;3.716;2022-12-29T01:07:44;11.60;99.90
13960;DHT22;7052;51.050;3.716;2022-12-29T01:10:13;11.70;99.90
13960;DHT22;7052;51.050;3.716;2022-12-29T01:12:42;11.70;99.90
13960;DHT22;7052;51.050;3.716;2022-12-29T01:15:14;11.60;99.90
13960;DHT22;7052;51.050;3.716;2022-12-29T01:17:42;11.70;99.90
13960;DHT22;7052;51.050;3.716;2022-12-29T01:20:10;11.50;99.90
13960;DHT22;7052;51.050;3.716;2022-12-29T01:22:37;11.60;99.90
13960;DHT22;7052;51.050;3.716;2022-12-29T01:25:05;11.60;99.90
13960;DHT22;7052;51.050;3.716;2022-12-29T01:27:33;11.70;99.90
13960;DHT22;7052;51.050;3.716;2022-12-29T01:30:12;11.70;99.90
13960;DHT22;7052;51.050;3.716;2022-12-29T01:32:39;11.60;99.90
13960;DHT22;7052;51.050;3.716;2022-12-29T01:35:06;11.60;99.90
13960;DHT22;7052;51.050;3.716;2022-12-29T01:37:33;11.60;99.90
13960;DHT22;7052;51.050;3.716;2022-12-29T01:40:00;11.60;99.90
13960;DHT22;7052;51.050;3.716;2022-12-29T01:42:27;11.60;99.90
13960;DHT22;7052;51.050;3.716;2022-12-29T01:44:56;11.60;99.90
13960;DHT22;7052;51.050;3.716;2022-12-29T01:47:32;11.70;99.90
13960;DHT22;7052;51.050;3.716;2022-12-29T01:50:04;11.60;99.90
13960;DHT22;7052;51.050;3.716;2022-12-29T01:52:35;11.60;99.90
13960;DHT22;7052;51.050;3.716;2022-12-29T01:55:05;11.60;99.90
13960;DHT22;7052;51.050;3.716;2022-12-29T01:57:36;11.50;99.90
13960;DHT22;7052;51.050;3.716;2022-12-29T02:00:07;11.50;99.90
13960;DHT22;7052;51.050;3.716;2022-12-29T02:02:37;11.40;99.90
13960;DHT22;7052;51.050;3.716;2022-12-29T02:05:10;11.40;99.90
13960;DHT22;7052;51.050;3.716;2022-12-29T02:07:39;11.40;99.90
13960;DHT22;7052;51.050;3.716;2022-12-29T02:10:07;11.40;99.90
13960;DHT22;7052;51.050;3.716;2022-12-29T02:12:34;11.30;99.90
13960;DHT22;7052;51.050;3.716;2022-12-29T02:15:07;11.30;99.90
13960;DHT22;7052;51.050;3.716;2022-12-29T02:17:47;11.30;99.90
13960;DHT22;7052;51.050;3.716;2022-12-29T02:21:01;11.30;99.90
13960;DHT22;7052;51.050;3.716;2022-12-29T02:23:53;11.20;99.90
13960;DHT22;7052;51.050;3.716;2022-12-29T02:26:44;11.20;99.90
13960;DHT22;7052;51.050;3.716;2022-12-29T02:29:42;11.20;99.90
13960;DHT22;7052;51.050;3.716;2022-12-29T02:32:20;11.20;99.90
13960;DHT22;7052;51.050;3.716;2022-12-29T02:34:56;11.10;99.90
13960;DHT22;7052;51.050;3.716;2022-12-29T02:37:28;11.10;99.90
13960;DHT22;7052;51.050;3.716;2022-12-29T02:40:07;11.10;99.90
13960;DHT22;7052;51.050;3.716;2022-12-29T02:42:46;11.10;99.90
13960;DHT22;7052;51.050;3.716;2022-12-29T02:45:20;11.10;99.90
13960;DHT22;7052;51.050;3.716;2022-12-29T02:47:56;11.20;99.90
13960;DHT22;7052;51.050;3.716;2022-12-29T02:50:27;11.20;99.90
13960;DHT22;7052;51.050;3.716;2022-12-29T02:53:00;11.20;99.90
13960;DHT22;7052;51.050;3.716;2022-12-29T02:55:28;11.20;99.90
13960;DHT22;7052;51.050;3.716;2022-12-29T02:58:15;11.20;99.90
13960;DHT22;7052;51.050;3.716;2022-12-29T03:00:51;11.00;99.90
13960;DHT22;7052;51.050;3.716;2022-12-29T03:03:32;11.10;99.90
13960;DHT22;7052;51.050;3.716;2022-12-29T03:06:16;11.10;99.90
13960;DHT22;7052;51.050;3.716;2022-12-29T03:08:55;11.20;99.90
13960;DHT22;7052;51.050;3.716;2022-12-29T03:11:30;11.10;99.90
13960;DHT22;7052;51.050;3.716;2022-12-29T03:14:33;11.30;99.90
13960;DHT22;7052;51.050;3.716;2022-12-29T03:17:26;11.50;99.90
13960;DHT22;7052;51.050;3.716;2022-12-29T03:20:03;11.50;99.90
13960;DHT22;7052;51.050;3.716;2022-12-29T03:22:33;11.60;99.90
13960;DHT22;7052;51.050;3.716;2022-12-29T03:25:05;11.60;99.90
13960;DHT22;7052;51.050;3.716;2022-12-29T03:27:39;11.50;99.90
13960;DHT22;7052;51.050;3.716;2022-12-29T03:30:08;11.40;99.90
13960;DHT22;7052;51.050;3.716;2022-12-29T03:32:46;11.30;99.90
13960;DHT22;7052;51.050;3.716;2022-12-29T03:35:17;11.20;99.90
13960;DHT22;7052;51.050;3.716;2022-12-29T03:37:50;11.00;99.90
13960;DHT22;7052;51.050;3.716;2022-12-29T03:40:21;10.90;99.90
13960;DHT22;7052;51.050;3.716;2022-12-29T03:42:50;10.80;99.90
13960;DHT22;7052;51.050;3.716;2022-12-29T03:45:18;10.80;99.90
13960;DHT22;7052;51.050;3.716;2022-12-29T03:47:45;10.90;99.90
13960;DHT22;7052;51.050;3.716;2022-12-29T03:50:14;11.00;99.90
13960;DHT22;7052;51.050;3.716;2022-12-29T03:52:41;11.10;99.90
13960;DHT22;7052;51.050;3.716;2022-12-29T03:55:09;11.10;99.90
13960;DHT22;7052;51.050;3.716;2022-12-29T03:57:36;11.10;99.90
13960;DHT22;7052;51.050;3.716;2022-12-29T04:00:04;11.10;99.90
13960;DHT22;7052;51.050;3.716;2022-12-29T04:02:34;11.10;99.90
13960;DHT22;7052;51.050;3.716;2022-12-29T04:05:01;11.20;99.90
13960;DHT22;7052;51.050;3.716;2022-12-29T04:07:29;11.20;99.90
13960;DHT22;7052;51.050;3.716;2022-12-29T04:09:57;11.10;99.90
13960;DHT22;7052;51.050;3.716;2022-12-29T04:12:24;11.10;99.90
13960;DHT22;7052;51.050;3.716;2022-12-29T04:14:53;11.00;99.90
13960;DHT22;7052;51.050;3.716;2022-12-29T04:17:20;10.90;99.90
13960;DHT22;7052;51.050;3.716;2022-12-29T04:19:49;10.90;99.90
13960;DHT22;7052;51.050;3.716;2022-12-29T04:22:16;10.90;99.90
13960;DHT22;7052;51.050;3.716;2022-12-29T04:24:45;10.80;99.90
13960;DHT22;7052;51.050;3.716;2022-12-29T04:27:12;10.80;99.90
13960;DHT22;7052;51.050;3.716;2022-12-29T04:29:39;10.80;99.90
13960;DHT22;7052;51.050;3.716;2022-12-29T04:32:06;10.80;99.90
13960;DHT22;7052;51.050;3.716;2022-12-29T04:34:33;10.70;99.90
13960;DHT22;7052;51.050;3.716;2022-12-29T04:37:00;10.70;99.90
13960;DHT22;7052;51.050;3.716;2022-12-29T04:39:27;10.60;99.90
13960;DHT22;7052;51.050;3.716;2022-12-29T04:41:56;10.60;99.90
13960;DHT22;7052;51.050;3.716;2022-12-29T04:44:23;10.50;99.90
13960;DHT22;7052;51.050;3.716;2022-12-29T04:46:50;10.50;99.90
13960;DHT22;7052;51.050;3.716;2022-12-29T04:49:17;10.50;99.90
13960;DHT22;7052;51.050;3.716;2022-12-29T04:51:44;10.50;99.90
13960;DHT22;7052;51.050;3.716;2022-12-29T04:54:12;10.60;99.90
13960;DHT22;7052;51.050;3.716;2022-12-29T04:56:39;10.60;99.90
13960;DHT22;7052;51.050;3.716;2022-12-29T04:59:09;10.60;99.90
13960;DHT22;7052;51.050;3.716;2022-12-29T05:01:38;10.70;99.90
13960;DHT22;7052;51.050;3.716;2022-12-29T05:04:06;10.60;99.90
13960;DHT22;7052;51.050;3.716;2022-12-29T05:06:34;10.60;99.90
13960;DHT22;7052;51.050;3.716;2022-12-29T05:09:00;10.60;99.90
13960;DHT22;7052;51.050;3.716;2022-12-29T05:11:27;10.50;99.90
13960;DHT22;7052;51.050;3.716;2022-12-29T05:13:55;10.50;99.90
13960;DHT22;7052;51.050;3.716;2022-12-29T05:16:24;10.50;99.90
13960;DHT22;7052;51.050;3.716;2022-12-29T05:18:51;10.50;99.90
13960;DHT22;7052;51.050;3.716;2022-12-29T05:21:18;10.50;99.90
13960;DHT22;7052;51.050;3.716;2022-12-29T05:23:45;10.50;99.90
13960;DHT22;7052;51.050;3.716;2022-12-29T05:26:13;10.50;99.90
13960;DHT22;7052;51.050;3.716;2022-12-29T05:28:40;10.50;99.90
13960;DHT22;7052;51.050;3.716;2022-12-29T05:31:07;10.50;99.90
13960;DHT22;7052;51.050;3.716;2022-12-29T05:33:37;10.40;99.90
13960;DHT22;7052;51.050;3.716;2022-12-29T05:36:05;10.40;99.90
13960;DHT22;7052;51.050;3.716;2022-12-29T05:38:32;10.40;99.90
13960;DHT22;7052;51.050;3.716;2022-12-29T05:40:59;10.30;99.90
13960;DHT22;7052;51.050;3.716;2022-12-29T05:43:28;10.30;99.90
13960;DHT22;7052;51.050;3.716;2022-12-29T05:45:56;10.30;99.90
13960;DHT22;7052;51.050;3.716;2022-12-29T05:48:28;10.40;99.90
13960;DHT22;7052;51.050;3.716;2022-12-29T05:50:58;10.40;99.90
13960;DHT22;7052;51.050;3.716;2022-12-29T05:53:26;10.40;99.90
13960;DHT22;7052;51.050;3.716;2022-12-29T05:55:55;10.40;99.90
13960;DHT22;7052;51.050;3.716;2022-12-29T05:58:22;10.50;99.90
13960;DHT22;7052;51.050;3.716;2022-12-29T06:00:49;10.50;99.90
13960;DHT22;7052;51.050;3.716;2022-12-29T06:03:16;10.50;99.90
13960;DHT22;7052;51.050;3.716;2022-12-29T06:05:44;10.60;99.90
13960;DHT22;7052;51.050;3.716;2022-12-29T06:08:12;10.60;99.90
13960;DHT22;7052;51.050;3.716;2022-12-29T06:10:40;10.60;99.90
13960;DHT22;7052;51.050;3.716;2022-12-29T06:13:07;10.70;99.90
13960;DHT22;7052;51.050;3.716;2022-12-29T06:15:34;10.70;99.90
13960;DHT22;7052;51.050;3.716;2022-12-29T06:18:02;10.80;99.90
13960;DHT22;7052;51.050;3.716;2022-12-29T06:20:29;10.70;99.90
13960;DHT22;7052;51.050;3.716;2022-12-29T06:22:57;10.70;99.90
13960;DHT22;7052;51.050;3.716;2022-12-29T06:25:25;10.70;99.90
13960;DHT22;7052;51.050;3.716;2022-12-29T06:27:52;10.60;99.90
13960;DHT22;7052;51.050;3.716;2022-12-29T06:30:19;10.70;99.90
13960;DHT22;7052;51.050;3.716;2022-12-29T06:32:47;10.70;99.90
13960;DHT22;7052;51.050;3.716;2022-12-29T06:35:17;10.60;99.90
13960;DHT22;7052;51.050;3.716;2022-12-29T06:37:44;10.70;99.90
13960;DHT22;7052;51.050;3.716;2022-12-29T06:40:12;10.80;99.90
13960;DHT22;7052;51.050;3.716;2022-12-29T06:42:40;10.70;99.90
13960;DHT22;7052;51.050;3.716;2022-12-29T06:45:07;10.90;99.90
13960;DHT22;7052;51.050;3.716;2022-12-29T06:47:40;10.80;99.90
13960;DHT22;7052;51.050;3.716;2022-12-29T06:50:13;10.70;99.90
13960;DHT22;7052;51.050;3.716;2022-12-29T06:52:40;10.60;99.90
13960;DHT22;7052;51.050;3.716;2022-12-29T06:55:10;10.50;99.90
13960;DHT22;7052;51.050;3.716;2022-12-29T06:57:38;10.50;99.90
13960;DHT22;7052;51.050;3.716;2022-12-29T07:00:08;10.40;99.90
13960;DHT22;7052;51.050;3.716;2022-12-29T07:02:37;10.40;99.90
13960;DHT22;7052;51.050;3.716;2022-12-29T07:05:05;10.50;99.90
13960;DHT22;7052;51.050;3.716;2022-12-29T07:07:35;10.50;99.90
13960;DHT22;7052;51.050;3.716;2022-12-29T07:10:02;10.50;99.90
13960;DHT22;7052;51.050;3.716;2022-12-29T07:12:29;10.50;99.90
13960;DHT22;7052;51.050;3.716;2022-12-29T07:15:04;10.50;99.90
13960;DHT22;7052;51.050;3.716;2022-12-29T07:17:33;10.50;99.90
13960;DHT22;7052;51.050;3.716;2022-12-29T07:20:01;10.50;99.90
13960;DHT22;7052;51.050;3.716;2022-12-29T07:22:28;10.50;99.90
13960;DHT22;7052;51.050;3.716;2022-12-29T07:24:55;10.50;99.90
13960;DHT22;7052;51.050;3.716;2022-12-29T07:27:22;10.50;99.90
13960;DHT22;7052;51.050;3.716;2022-12-29T07:29:49;10.50;99.90
13960;DHT22;7052;51.050;3.716;2022-12-29T07:32:19;10.50;99.90
13960;DHT22;7052;51.050;3.716;2022-12-29T07:34:47;10.50;99.90
13960;DHT22;7052;51.050;3.716;2022-12-29T07:37:15;10.50;99.90
13960;DHT22;7052;51.050;3.716;2022-12-29T07:39:43;10.60;99.90
13960;DHT22;7052;51.050;3.716;2022-12-29T07:42:12;10.50;99.90
13960;DHT22;7052;51.050;3.716;2022-12-29T07:44:40;10.50;99.90
13960;DHT22;7052;51.050;3.716;2022-12-29T07:47:09;10.50;99.90
13960;DHT22;7052;51.050;3.716;2022-12-29T07:49:36;10.50;99.90
13960;DHT22;7052;51.050;3.716;2022-12-29T07:52:05;10.50;99.90
13960;DHT22;7052;51.050;3.716;2022-12-29T07:54:32;10.50;99.90
13960;DHT22;7052;51.050;3.716;2022-12-29T07:57:03;10.50;99.90
13960;DHT22;7052;51.050;3.716;2022-12-29T07:59:33;10.60;99.90
13960;DHT22;7052;51.050;3.716;2022-12-29T08:02:00;10.50;99.90
13960;DHT22;7052;51.050;3.716;2022-12-29T08:04:27;10.50;99.90
13960;DHT22;7052;51.050;3.716;2022-12-29T08:06:53;10.50;99.90
13960;DHT22;7052;51.050;3.716;2022-12-29T08:09:35;10.50;99.90
13960;DHT22;7052;51.050;3.716;2022-12-29T08:12:04;10.50;99.90
13960;DHT22;7052;51.050;3.716;2022-12-29T08:14:31;10.40;99.90
13960;DHT22;7052;51.050;3.716;2022-12-29T08:17:14;10.40;99.90
13960;DHT22;7052;51.050;3.716;2022-12-29T08:19:42;10.50;99.90
13960;DHT22;7052;51.050;3.716;2022-12-29T08:22:10;10.40;99.90
13960;DHT22;7052;51.050;3.716;2022-12-29T08:24:39;10.60;99.90
13960;DHT22;7052;51.050;3.716;2022-12-29T08:27:14;10.70;99.90
13960;DHT22;7052;51.050;3.716;2022-12-29T08:29:42;10.90;99.90
13960;DHT22;7052;51.050;3.716;2022-12-29T08:32:09;10.90;99.90
13960;DHT22;7052;51.050;3.716;2022-12-29T08:34:36;11.00;99.90
13960;DHT22;7052;51.050;3.716;2022-12-29T08:37:04;10.80;99.90
13960;DHT22;7052;51.050;3.716;2022-12-29T08:39:33;10.70;99.90
13960;DHT22;7052;51.050;3.716;2022-12-29T08:42:01;10.50;99.90
13960;DHT22;7052;51.050;3.716;2022-12-29T08:44:32;10.50;99.90
13960;DHT22;7052;51.050;3.716;2022-12-29T08:47:02;10.40;99.90
13960;DHT22;7052;51.050;3.716;2022-12-29T08:49:28;10.30;99.90
13960;DHT22;7052;51.050;3.716;2022-12-29T08:51:55;10.40;99.90
13960;DHT22;7052;51.050;3.716;2022-12-29T08:54:23;10.30;99.90
13960;DHT22;7052;51.050;3.716;2022-12-29T08:56:51;10.30;99.90
13960;DHT22;7052;51.050;3.716;2022-12-29T08:59:20;10.20;99.90
13960;DHT22;7052;51.050;3.716;2022-12-29T09:01:47;10.10;99.90
13960;DHT22;7052;51.050;3.716;2022-12-29T09:04:16;10.20;99.90
13960;DHT22;7052;51.050;3.716;2022-12-29T09:06:45;10.30;99.90
13960;DHT22;7052;51.050;3.716;2022-12-29T09:09:13;10.30;99.90
13960;DHT22;7052;51.050;3.716;2022-12-29T09:11:41;10.40;99.90
13960;DHT22;7052;51.050;3.716;2022-12-29T09:14:08;10.30;99.90
13960;DHT22;7052;51.050;3.716;2022-12-29T09:16:39;10.20;99.90
13960;DHT22;7052;51.050;3.716;2022-12-29T09:19:24;10.10;99.90
13960;DHT22;7052;51.050;3.716;2022-12-29T09:21:51;10.10;99.90
13960;DHT22;7052;51.050;3.716;2022-12-29T09:24:19;10.10;99.90
13960;DHT22;7052;51.050;3.716;2022-12-29T09:26:48;10.20;99.90
13960;DHT22;7052;51.050;3.716;2022-12-29T09:29:15;10.20;99.90
13960;DHT22;7052;51.050;3.716;2022-12-29T09:31:43;10.20;99.90
13960;DHT22;7052;51.050;3.716;2022-12-29T09:34:10;10.20;99.90
13960;DHT22;7052;51.050;3.716;2022-12-29T09:36:38;10.30;99.90
13960;DHT22;7052;51.050;3.716;2022-12-29T09:39:07;10.40;99.90
13960;DHT22;7052;51.050;3.716;2022-12-29T09:41:38;10.40;99.90
13960;DHT22;7052;51.050;3.716;2022-12-29T09:44:13;10.50;99.90
13960;DHT22;7052;51.050;3.716;2022-12-29T09:46:48;10.40;99.90
13960;DHT22;7052;51.050;3.716;2022-12-29T09:49:23;10.40;99.90
13960;DHT22;7052;51.050;3.716;2022-12-29T09:51:56;10.40;99.90
13960;DHT22;7052;51.050;3.716;2022-12-29T09:54:45;10.40;99.90
13960;DHT22;7052;51.050;3.716;2022-12-29T09:57:16;10.30;99.90
13960;DHT22;7052;51.050;3.716;2022-12-29T09:59:51;10.30;99.90
13960;DHT22;7052;51.050;3.716;2022-12-29T10:02:29;10.30;99.90
13960;DHT22;7052;51.050;3.716;2022-12-29T10:04:59;10.30;99.90
13960;DHT22;7052;51.050;3.716;2022-12-29T10:07:36;10.20;99.90
13960;DHT22;7052;51.050;3.716;2022-12-29T10:10:23;10.20;99.90
13960;DHT22;7052;51.050;3.716;2022-12-29T10:12:59;10.20;99.90
13960;DHT22;7052;51.050;3.716;2022-12-29T10:15:46;10.30;99.90
13960;DHT22;7052;51.050;3.716;2022-12-29T10:18:33;10.40;99.90
13960;DHT22;7052;51.050;3.716;2022-12-29T10:21:13;10.50;99.90
13960;DHT22;7052;51.050;3.716;2022-12-29T10:23:44;10.50;99.90
13960;DHT22;7052;51.050;3.716;2022-12-29T10:26:15;10.50;99.90
13960;DHT22;7052;51.050;3.716;2022-12-29T10:28:45;10.60;99.90
13960;DHT22;7052;51.050;3.716;2022-12-29T10:31:18;10.70;99.90
13960;DHT22;7052;51.050;3.716;2022-12-29T10:33:49;10.70;99.90
13960;DHT22;7052;51.050;3.716;2022-12-29T10:36:27;10.80;99.90
13960;DHT22;7052;51.050;3.716;2022-12-29T10:39:04;10.70;99.90
13960;DHT22;7052;51.050;3.716;2022-12-29T10:41:38;10.80;99.90
13960;DHT22;7052;51.050;3.716;2022-12-29T10:44:13;10.70;99.90
13960;DHT22;7052;51.050;3.716;2022-12-29T10:46:44;10.80;99.90
13960;DHT22;7052;51.050;3.716;2022-12-29T10:49:17;10.90;99.90
13960;DHT22;7052;51.050;3.716;2022-12-29T10:51:46;10.80;99.90
13960;DHT22;7052;51.050;3.716;2022-12-29T10:54:21;10.90;99.90
13960;DHT22;7052;51.050;3.716;2022-12-29T10:56:54;10.90;99.90
13960;DHT22;7052;51.050;3.716;2022-12-29T10:59:25;10.90;99.90
13960;DHT22;7052;51.050;3.716;2022-12-29T11:01:59;10.90;99.90
13960;DHT22;7052;51.050;3.716;2022-12-29T11:04:54;11.10;99.90
13960;DHT22;7052;51.050;3.716;2022-12-29T11:07:23;11.10;99.90
13960;DHT22;7052;51.050;3.716;2022-12-29T11:09:51;11.10;99.90
13960;DHT22;7052;51.050;3.716;2022-12-29T11:12:20;10.90;99.90
13960;DHT22;7052;51.050;3.716;2022-12-29T11:15:01;11.00;99.90
13960;DHT22;7052;51.050;3.716;2022-12-29T11:17:29;11.00;99.90
13960;DHT22;7052;51.050;3.716;2022-12-29T11:19:57;11.00;99.90
13960;DHT22;7052;51.050;3.716;2022-12-29T11:22:27;11.20;99.90
13960;DHT22;7052;51.050;3.716;2022-12-29T11:24:55;11.10;99.90
13960;DHT22;7052;51.050;3.716;2022-12-29T11:27:31;11.10;99.90
13960;DHT22;7052;51.050;3.716;2022-12-29T11:29:58;11.10;99.90
13960;DHT22;7052;51.050;3.716;2022-12-29T11:32:27;11.30;99.90
13960;DHT22;7052;51.050;3.716;2022-12-29T11:35:04;11.20;99.90
13960;DHT22;7052;51.050;3.716;2022-12-29T11:37:32;11.20;99.90
13960;DHT22;7052;51.050;3.716;2022-12-29T11:40:05;11.10;99.90
13960;DHT22;7052;51.050;3.716;2022-12-29T11:42:36;11.10;99.90
13960;DHT22;7052;51.050;3.716;2022-12-29T11:45:12;11.30;99.90
13960;DHT22;7052;51.050;3.716;2022-12-29T11:47:43;11.10;99.90
13960;DHT22;7052;51.050;3.716;2022-12-29T11:50:20;11.10;99.90
13960;DHT22;7052;51.050;3.716;2022-12-29T11:52:59;11.00;99.90
13960;DHT22;7052;51.050;3.716;2022-12-29T11:55:30;10.80;99.90
13960;DHT22;7052;51.050;3.716;2022-12-29T11:58:03;10.60;99.90
13960;DHT22;7052;51.050;3.716;2022-12-29T12:00:34;10.80;99.90
13960;DHT22;7052;51.050;3.716;2022-12-29T12:03:11;10.60;99.90
13960;DHT22;7052;51.050;3.716;2022-12-29T12:05:47;10.50;99.90
13960;DHT22;7052;51.050;3.716;2022-12-29T12:08:21;10.40;99.90
13960;DHT22;7052;51.050;3.716;2022-12-29T12:10:54;10.40;99.90
13960;DHT22;7052;51.050;3.716;2022-12-29T12:13:27;10.40;99.90
13960;DHT22;7052;51.050;3.716;2022-12-29T12:16:02;10.30;99.90
13960;DHT22;7052;51.050;3.716;2022-12-29T12:18:43;10.30;99.90
13960;DHT22;7052;51.050;3.716;2022-12-29T12:21:21;10.30;99.90
13960;DHT22;7052;51.050;3.716;2022-12-29T12:24:13;10.50;99.90
13960;DHT22;7052;51.050;3.716;2022-12-29T12:26:52;10.30;99.90
13960;DHT22;7052;51.050;3.716;2022-12-29T12:29:26;10.40;99.90
13960;DHT22;7052;51.050;3.716;2022-12-29T12:32:01;10.40;99.90
13960;DHT22;7052;51.050;3.716;2022-12-29T12:34:33;10.50;99.90
13960;DHT22;7052;51.050;3.716;2022-12-29T12:37:15;10.50;99.90
13960;DHT22;7052;51.050;3.716;2022-12-29T12:40:02;10.70;99.90
13960;DHT22;7052;51.050;3.716;2022-12-29T12:42:39;10.70;99.90
13960;DHT22;7052;51.050;3.716;2022-12-29T12:45:32;10.70;99.90
13960;DHT22;7052;51.050;3.716;2022-12-29T12:48:17;10.80;99.90
13960;DHT22;7052;51.050;3.716;2022-12-29T12:50:52;10.80;99.90
13960;DHT22;7052;51.050;3.716;2022-12-29T12:53:47;10.80;99.90
13960;DHT22;7052;51.050;3.716;2022-12-29T12:59:41;10.80;99.90
13960;DHT22;7052;51.050;3.716;2022-12-29T13:02:22;10.80;99.90
13960;DHT22;7052;51.050;3.716;2022-12-29T13:07:55;10.70;99.90
13960;DHT22;7052;51.050;3.716;2022-12-29T13:10:36;10.70;99.90
13960;DHT22;7052;51.050;3.716;2022-12-29T13:13:32;10.60;99.90
13960;DHT22;7052;51.050;3.716;2022-12-29T13:16:10;10.80;99.90
13960;DHT22;7052;51.050;3.716;2022-12-29T13:18:48;10.70;99.90
13960;DHT22;7052;51.050;3.716;2022-12-29T13:21:28;10.80;99.90
13960;DHT22;7052;51.050;3.716;2022-12-29T13:24:04;10.70;99.90
13960;DHT22;7052;51.050;3.716;2022-12-29T13:26:43;10.50;99.90
13960;DHT22;7052;51.050;3.716;2022-12-29T13:29:18;10.50;99.90
13960;DHT22;7052;51.050;3.716;2022-12-29T13:31:52;10.50;99.90
13960;DHT22;7052;51.050;3.716;2022-12-29T13:34:32;10.50;99.90
13960;DHT22;7052;51.050;3.716;2022-12-29T13:37:07;10.50;99.90
13960;DHT22;7052;51.050;3.716;2022-12-29T13:39:39;10.30;99.90
13960;DHT22;7052;51.050;3.716;2022-12-29T13:42:09;10.20;99.90
13960;DHT22;7052;51.050;3.716;2022-12-29T13:44:41;10.20;99.90
13960;DHT22;7052;51.050;3.716;2022-12-29T13:47:20;10.10;99.90
13960;DHT22;7052;51.050;3.716;2022-12-29T13:49:47;10.20;99.90
13960;DHT22;7052;51.050;3.716;2022-12-29T13:52:18;10.20;99.90
13960;DHT22;7052;51.050;3.716;2022-12-29T13:54:57;10.20;99.90
13960;DHT22;7052;51.050;3.716;2022-12-29T13:57:38;10.20;99.90
13960;DHT22;7052;51.050;3.716;2022-12-29T14:00:13;10.20;99.90
13960;DHT22;7052;51.050;3.716;2022-12-29T14:02:55;10.20;99.90
13960;DHT22;7052;51.050;3.716;2022-12-29T14:05:29;10.00;99.90
13960;DHT22;7052;51.050;3.716;2022-12-29T14:07:58;10.00;99.90
13960;DHT22;7052;51.050;3.716;2022-12-29T14:10:29;10.00;99.90
13960;DHT22;7052;51.050;3.716;2022-12-29T14:13:10;9.90;99.90
13960;DHT22;7052;51.050;3.716;2022-12-29T14:15:41;9.90;99.90
13960;DHT22;7052;51.050;3.716;2022-12-29T14:18:14;10.00;99.90
13960;DHT22;7052;51.050;3.716;2022-12-29T14:20:53;9.90;99.90
13960;DHT22;7052;51.050;3.716;2022-12-29T14:23:35;9.90;99.90
13960;DHT22;7052;51.050;3.716;2022-12-29T14:26:14;9.90;99.90
13960;DHT22;7052;51.050;3.716;2022-12-29T14:28:44;9.70;99.90
13960;DHT22;7052;51.050;3.716;2022-12-29T14:31:34;9.80;99.90
13960;DHT22;7052;51.050;3.716;2022-12-29T14:34:38;9.70;99.90
13960;DHT22;7052;51.050;3.716;2022-12-29T14:37:23;9.70;99.90
13960;DHT22;7052;51.050;3.716;2022-12-29T14:40:03;9.70;99.90
13960;DHT22;7052;51.050;3.716;2022-12-29T14:42:32;9.70;99.90
13960;DHT22;7052;51.050;3.716;2022-12-29T14:45:06;9.80;99.90
13960;DHT22;7052;51.050;3.716;2022-12-29T14:47:36;9.70;99.90
13960;DHT22;7052;51.050;3.716;2022-12-29T14:50:12;9.70;99.90
13960;DHT22;7052;51.050;3.716;2022-12-29T14:52:46;9.80;99.90
13960;DHT22;7052;51.050;3.716;2022-12-29T14:55:35;9.80;99.90
13960;DHT22;7052;51.050;3.716;2022-12-29T14:58:06;9.90;99.90
13960;DHT22;7052;51.050;3.716;2022-12-29T15:00:41;9.90;99.90
13960;DHT22;7052;51.050;3.716;2022-12-29T15:03:17;9.80;99.90
13960;DHT22;7052;51.050;3.716;2022-12-29T15:05:46;9.70;99.90
13960;DHT22;7052;51.050;3.716;2022-12-29T15:08:18;9.70;99.90
13960;DHT22;7052;51.050;3.716;2022-12-29T15:10:51;9.70;99.90
13960;DHT22;7052;51.050;3.716;2022-12-29T15:13:33;9.60;99.90
13960;DHT22;7052;51.050;3.716;2022-12-29T15:16:02;9.60;99.90
13960;DHT22;7052;51.050;3.716;2022-12-29T15:18:30;9.50;99.90
13960;DHT22;7052;51.050;3.716;2022-12-29T15:21:06;9.40;99.90
13960;DHT22;7052;51.050;3.716;2022-12-29T15:23:34;9.50;99.90
13960;DHT22;7052;51.050;3.716;2022-12-29T15:26:05;9.50;99.90
13960;DHT22;7052;51.050;3.716;2022-12-29T15:28:38;9.50;99.90
13960;DHT22;7052;51.050;3.716;2022-12-29T15:31:14;9.40;99.90
13960;DHT22;7052;51.050;3.716;2022-12-29T15:33:43;9.40;99.90
13960;DHT22;7052;51.050;3.716;2022-12-29T15:36:18;9.30;99.90
13960;DHT22;7052;51.050;3.716;2022-12-29T15:38:46;9.30;99.90
13960;DHT22;7052;51.050;3.716;2022-12-29T15:41:31;9.30;99.90
13960;DHT22;7052;51.050;3.716;2022-12-29T15:44:25;9.20;99.90
13960;DHT22;7052;51.050;3.716;2022-12-29T15:47:03;9.10;99.90
13960;DHT22;7052;51.050;3.716;2022-12-29T15:49:31;9.10;99.90
13960;DHT22;7052;51.050;3.716;2022-12-29T15:52:00;9.10;99.90
13960;DHT22;7052;51.050;3.716;2022-12-29T15:54:32;9.10;99.90
13960;DHT22;7052;51.050;3.716;2022-12-29T15:56:59;9.10;99.90
13960;DHT22;7052;51.050;3.716;2022-12-29T15:59:30;9.00;99.90
13960;DHT22;7052;51.050;3.716;2022-12-29T16:01:58;9.00;99.90
13960;DHT22;7052;51.050;3.716;2022-12-29T16:04:31;9.00;99.90
13960;DHT22;7052;51.050;3.716;2022-12-29T16:07:00;8.90;99.90
13960;DHT22;7052;51.050;3.716;2022-12-29T16:09:33;8.90;99.90
13960;DHT22;7052;51.050;3.716;2022-12-29T16:12:03;8.80;99.90
13960;DHT22;7052;51.050;3.716;2022-12-29T16:14:43;8.70;99.90
13960;DHT22;7052;51.050;3.716;2022-12-29T16:17:15;8.70;99.90
13960;DHT22;7052;51.050;3.716;2022-12-29T16:19:50;8.60;99.90
13960;DHT22;7052;51.050;3.716;2022-12-29T16:22:21;8.60;99.90
13960;DHT22;7052;51.050;3.716;2022-12-29T16:24:57;8.50;99.90
13960;DHT22;7052;51.050;3.716;2022-12-29T16:27:31;8.50;99.90